createdAt,value
2023-01-08T00:00:10.619Z,3.80
2023-01-08T00:00:43.356Z,3.30
2023-01-08T00:01:16.026Z,3.80
2023-01-08T00:01:48.694Z,3.70
2023-01-08T00:02:21.371Z,3.80
2023-01-08T00:02:54.262Z,3.60
2023-01-08T00:03:27.097Z,3.50
2023-01-08T00:03:59.846Z,3.40
2023-01-08T00:04:32.520Z,3.40
2023-01-08T00:05:05.173Z,3.50
2023-01-08T00:05:37.848Z,3.40
2023-01-08T00:06:10.527Z,3.10
2023-01-08T00:06:43.195Z,3.20
2023-01-08T00:07:15.880Z,3.40
2023-01-08T00:07:48.566Z,3.60
2023-01-08T00:08:21.248Z,3.10
2023-01-08T00:08:53.918Z,3.10
2023-01-08T00:09:26.593Z,3.30
2023-01-08T00:09:59.271Z,3.60
2023-01-08T00:10:31.951Z,3.30
2023-01-08T00:11:04.606Z,3.10
2023-01-08T00:11:37.276Z,3.20
2023-01-08T00:12:09.987Z,3.30
2023-01-08T00:12:42.669Z,3.00
2023-01-08T00:13:15.310Z,3.20
2023-01-08T00:13:47.984Z,3.30
2023-01-08T00:14:20.652Z,3.30
2023-01-08T00:14:53.451Z,3.20
2023-01-08T00:15:26.075Z,3.30
2023-01-08T00:15:58.745Z,3.30
2023-01-08T00:16:31.546Z,3.30
2023-01-08T00:17:04.240Z,3.30
2023-01-08T00:17:36.899Z,3.30
2023-01-08T00:18:09.572Z,3.00
2023-01-08T00:18:42.243Z,3.30
2023-01-08T00:19:14.923Z,3.10
2023-01-08T00:19:47.590Z,3.20
2023-01-08T00:20:20.264Z,3.40
2023-01-08T00:20:52.923Z,3.10
2023-01-08T00:21:25.600Z,3.30
2023-01-08T00:21:58.288Z,3.30
2023-01-08T00:22:30.955Z,3.00
2023-01-08T00:23:03.638Z,3.40
2023-01-08T00:23:36.311Z,3.30
2023-01-08T00:24:08.971Z,3.10
2023-01-08T00:24:41.641Z,3.00
2023-01-08T00:25:14.320Z,3.50
2023-01-08T00:25:46.996Z,3.80
2023-01-08T00:26:19.671Z,3.40
2023-01-08T00:26:52.329Z,3.30
2023-01-08T00:27:25.011Z,3.50
2023-01-08T00:27:57.699Z,3.00
2023-01-08T00:28:30.359Z,3.20
2023-01-08T00:29:03.034Z,3.20
2023-01-08T00:29:35.739Z,3.20
2023-01-08T00:30:08.526Z,3.20
2023-01-08T00:30:41.227Z,3.10
2023-01-08T00:31:13.948Z,3.30
2023-01-08T00:31:46.630Z,3.00
2023-01-08T00:32:19.316Z,3.30
2023-01-08T00:32:51.995Z,3.20
2023-01-08T00:33:24.658Z,3.20
2023-01-08T00:33:57.325Z,3.20
2023-01-08T00:34:29.990Z,3.30
2023-01-08T00:35:02.656Z,3.40
2023-01-08T00:35:35.331Z,3.30
2023-01-08T00:36:08.006Z,3.50
2023-01-08T00:36:40.648Z,3.50
2023-01-08T00:37:13.341Z,3.00
2023-01-08T00:37:46.013Z,3.40
2023-01-08T00:38:18.703Z,3.40
2023-01-08T00:38:51.359Z,3.70
2023-01-08T00:39:24.031Z,3.30
2023-01-08T00:39:56.705Z,3.30
2023-01-08T00:40:29.369Z,3.10
2023-01-08T00:41:02.061Z,3.20
2023-01-08T00:41:34.719Z,3.50
2023-01-08T00:42:07.431Z,3.50
2023-01-08T00:42:40.075Z,3.60
2023-01-08T00:43:12.754Z,3.30
2023-01-08T00:43:45.416Z,3.40
2023-01-08T00:44:18.093Z,3.40
2023-01-08T00:44:50.789Z,3.10
2023-01-08T00:45:23.603Z,3.40
2023-01-08T00:45:56.274Z,3.30
2023-01-08T00:46:28.925Z,3.20
2023-01-08T00:47:01.598Z,3.40
2023-01-08T00:47:34.267Z,3.40
2023-01-08T00:48:05.355Z,3.30
2023-01-08T00:48:38.060Z,3.40
2023-01-08T00:49:10.720Z,3.50
2023-01-08T00:49:43.397Z,3.40
2023-01-08T00:50:16.058Z,3.50
2023-01-08T00:50:48.721Z,3.40
2023-01-08T00:51:21.390Z,3.50
2023-01-08T00:51:54.061Z,3.70
2023-01-08T00:52:26.748Z,3.30
2023-01-08T00:52:59.418Z,3.70
2023-01-08T00:53:32.078Z,3.70
2023-01-08T00:54:04.756Z,3.20
2023-01-08T00:54:37.466Z,3.40
2023-01-08T00:55:10.115Z,3.40
2023-01-08T00:55:42.783Z,3.60
2023-01-08T00:56:15.471Z,3.50
2023-01-08T00:56:48.120Z,3.60
2023-01-08T00:57:20.802Z,3.20
2023-01-08T00:57:53.469Z,3.50
2023-01-08T00:58:26.139Z,3.50
2023-01-08T00:58:58.814Z,3.40
2023-01-08T00:59:31.481Z,3.40
2023-01-08T01:00:04.151Z,3.60
2023-01-08T01:00:36.952Z,3.50
2023-01-08T01:01:09.777Z,3.70
2023-01-08T01:01:42.577Z,3.40
2023-01-08T01:02:15.415Z,3.50
2023-01-08T01:02:48.084Z,3.60
2023-01-08T01:03:20.752Z,3.60
2023-01-08T01:03:53.460Z,3.40
2023-01-08T01:04:26.274Z,3.50
2023-01-08T01:04:58.955Z,3.70
2023-01-08T01:05:31.618Z,3.30
2023-01-08T01:06:04.294Z,3.60
2023-01-08T01:06:37.028Z,3.70
2023-01-08T01:07:09.693Z,3.70
2023-01-08T01:07:42.363Z,3.70
2023-01-08T01:08:15.041Z,3.60
2023-01-08T01:08:47.719Z,3.80
2023-01-08T01:09:20.386Z,3.50
2023-01-08T01:09:53.058Z,3.90
2023-01-08T01:10:25.719Z,3.70
2023-01-08T01:10:58.396Z,3.60
2023-01-08T01:11:31.063Z,3.50
2023-01-08T01:12:03.736Z,3.60
2023-01-08T01:12:36.415Z,3.60
2023-01-08T01:13:09.086Z,3.70
2023-01-08T01:13:41.758Z,3.90
2023-01-08T01:14:14.432Z,3.40
2023-01-08T01:14:47.105Z,3.80
2023-01-08T01:15:19.765Z,3.70
2023-01-08T01:15:52.553Z,3.80
2023-01-08T01:16:25.271Z,4.00
2023-01-08T01:16:58.006Z,3.70
2023-01-08T01:17:30.687Z,3.90
2023-01-08T01:18:03.354Z,3.50
2023-01-08T01:18:36.026Z,3.70
2023-01-08T01:19:08.687Z,3.90
2023-01-08T01:19:41.375Z,3.60
2023-01-08T01:20:14.037Z,3.80
2023-01-08T01:20:46.706Z,3.70
2023-01-08T01:21:17.783Z,3.60
2023-01-08T01:21:50.454Z,3.90
2023-01-08T01:22:23.143Z,3.80
2023-01-08T01:22:55.830Z,3.70
2023-01-08T01:23:28.494Z,3.60
2023-01-08T01:24:01.168Z,3.80
2023-01-08T01:24:33.866Z,4.10
2023-01-08T01:25:06.532Z,3.80
2023-01-08T01:25:39.187Z,3.70
2023-01-08T01:26:11.848Z,3.90
2023-01-08T01:26:44.516Z,3.80
2023-01-08T01:27:17.199Z,3.70
2023-01-08T01:27:49.869Z,3.70
2023-01-08T01:28:22.540Z,3.90
2023-01-08T01:28:55.209Z,3.70
2023-01-08T01:29:27.874Z,3.70
2023-01-08T01:30:00.566Z,3.60
2023-01-08T01:30:33.252Z,3.90
2023-01-08T01:31:06.062Z,3.90
2023-01-08T01:31:38.741Z,3.90
2023-01-08T01:32:11.415Z,4.00
2023-01-08T01:32:44.099Z,3.70
2023-01-08T01:33:16.771Z,3.80
2023-01-08T01:33:49.437Z,3.80
2023-01-08T01:34:22.107Z,3.80
2023-01-08T01:34:54.794Z,4.00
2023-01-08T01:35:27.447Z,3.70
2023-01-08T01:36:00.164Z,3.70
2023-01-08T01:36:32.815Z,3.80
2023-01-08T01:37:05.475Z,3.90
2023-01-08T01:37:38.173Z,3.80
2023-01-08T01:38:10.829Z,3.70
2023-01-08T01:38:43.499Z,3.90
2023-01-08T01:39:16.178Z,3.80
2023-01-08T01:39:48.833Z,3.90
2023-01-08T01:40:21.512Z,3.70
2023-01-08T01:40:54.193Z,3.70
2023-01-08T01:41:26.882Z,4.10
2023-01-08T01:41:59.560Z,4.10
2023-01-08T01:42:32.215Z,3.90
2023-01-08T01:43:04.883Z,3.90
2023-01-08T01:43:37.555Z,4.00
2023-01-08T01:44:10.225Z,3.70
2023-01-08T01:44:42.900Z,3.80
2023-01-08T01:45:15.590Z,4.00
2023-01-08T01:45:48.302Z,4.10
2023-01-08T01:46:21.237Z,4.00
2023-01-08T01:46:53.903Z,3.80
2023-01-08T01:47:26.577Z,3.80
2023-01-08T01:47:59.268Z,4.00
2023-01-08T01:48:31.939Z,4.10
2023-01-08T01:49:04.620Z,4.30
2023-01-08T01:49:37.280Z,4.10
2023-01-08T01:50:09.950Z,4.00
2023-01-08T01:50:42.660Z,4.00
2023-01-08T01:51:15.293Z,4.20
2023-01-08T01:51:47.960Z,3.90
2023-01-08T01:52:20.657Z,4.00
2023-01-08T01:52:53.340Z,3.70
2023-01-08T01:53:25.987Z,4.20
2023-01-08T01:53:58.654Z,4.10
2023-01-08T01:54:31.323Z,3.90
2023-01-08T01:55:04.004Z,3.60
2023-01-08T01:55:36.660Z,4.20
2023-01-08T01:56:09.339Z,4.00
2023-01-08T01:56:42.013Z,4.00
2023-01-08T01:57:14.682Z,4.00
2023-01-08T01:57:47.369Z,4.00
2023-01-08T01:58:20.044Z,4.10
2023-01-08T01:58:52.721Z,4.10
2023-01-08T01:59:25.387Z,4.00
2023-01-08T01:59:58.082Z,4.10
2023-01-08T02:00:30.755Z,4.10
2023-01-08T02:01:03.512Z,4.10
2023-01-08T02:01:36.419Z,3.90
2023-01-08T02:02:02.830Z,4.10
2023-01-08T02:02:35.540Z,4.20
2023-01-08T02:03:08.246Z,4.30
2023-01-08T02:03:40.964Z,4.30
2023-01-08T02:04:13.741Z,4.10
2023-01-08T02:04:46.472Z,4.20
2023-01-08T02:05:19.133Z,4.20
2023-01-08T02:05:51.804Z,4.10
2023-01-08T02:06:24.478Z,4.60
2023-01-08T02:06:57.140Z,4.50
2023-01-08T02:07:29.816Z,4.40
2023-01-08T02:08:02.521Z,4.10
2023-01-08T02:08:35.165Z,4.40
2023-01-08T02:09:07.834Z,4.20
2023-01-08T02:09:40.500Z,4.00
2023-01-08T02:10:13.176Z,4.30
2023-01-08T02:10:45.837Z,4.00
2023-01-08T02:11:18.508Z,4.60
2023-01-08T02:11:51.185Z,4.60
2023-01-08T02:12:23.865Z,4.50
2023-01-08T02:12:56.520Z,4.30
2023-01-08T02:13:29.207Z,4.60
2023-01-08T02:14:01.882Z,4.50
2023-01-08T02:14:34.553Z,4.20
2023-01-08T02:15:07.242Z,4.10
2023-01-08T02:15:39.904Z,4.20
2023-01-08T02:16:12.566Z,4.30
2023-01-08T02:16:45.415Z,4.20
2023-01-08T02:17:18.093Z,4.50
2023-01-08T02:17:50.766Z,4.50
2023-01-08T02:18:23.458Z,4.70
2023-01-08T02:18:56.129Z,4.30
2023-01-08T02:19:28.801Z,4.40
2023-01-08T02:20:01.497Z,4.50
2023-01-08T02:20:34.146Z,4.50
2023-01-08T02:21:06.824Z,4.30
2023-01-08T02:21:39.479Z,4.50
2023-01-08T02:22:12.159Z,4.40
2023-01-08T02:22:44.813Z,4.40
2023-01-08T02:23:17.510Z,4.30
2023-01-08T02:23:50.180Z,4.30
2023-01-08T02:24:22.851Z,4.50
2023-01-08T02:24:55.518Z,4.60
2023-01-08T02:25:28.198Z,4.40
2023-01-08T02:26:00.851Z,4.50
2023-01-08T02:26:33.523Z,4.70
2023-01-08T02:27:06.197Z,4.50
2023-01-08T02:27:38.880Z,4.60
2023-01-08T02:28:11.539Z,4.60
2023-01-08T02:28:44.227Z,4.30
2023-01-08T02:29:16.897Z,4.40
2023-01-08T02:29:49.570Z,5.00
2023-01-08T02:30:20.656Z,4.80
2023-01-08T02:30:53.397Z,4.90
2023-01-08T02:31:26.060Z,4.50
2023-01-08T02:31:58.877Z,4.70
2023-01-08T02:32:31.524Z,4.40
2023-01-08T02:33:04.194Z,5.00
2023-01-08T02:33:36.852Z,5.00
2023-01-08T02:34:09.530Z,4.80
2023-01-08T02:34:42.196Z,5.00
2023-01-08T02:35:14.879Z,4.70
2023-01-08T02:35:47.536Z,4.40
2023-01-08T02:36:20.220Z,5.00
2023-01-08T02:36:52.890Z,4.70
2023-01-08T02:37:25.561Z,5.00
2023-01-08T02:37:58.263Z,4.90
2023-01-08T02:38:30.936Z,4.60
2023-01-08T02:39:03.617Z,4.80
2023-01-08T02:39:36.292Z,4.80
2023-01-08T02:40:08.952Z,4.70
2023-01-08T02:40:41.624Z,4.70
2023-01-08T02:41:14.298Z,4.70
2023-01-08T02:41:46.968Z,4.50
2023-01-08T02:42:19.633Z,4.70
2023-01-08T02:42:52.314Z,4.80
2023-01-08T02:43:24.986Z,4.70
2023-01-08T02:43:57.679Z,4.80
2023-01-08T02:44:30.344Z,4.70
2023-01-08T02:45:03.031Z,4.70
2023-01-08T02:45:35.687Z,4.90
2023-01-08T02:46:08.397Z,5.10
2023-01-08T02:46:41.068Z,4.90
2023-01-08T02:47:13.860Z,5.00
2023-01-08T02:47:46.498Z,5.00
2023-01-08T02:48:19.161Z,4.90
2023-01-08T02:48:51.857Z,4.70
2023-01-08T02:49:24.518Z,5.00
2023-01-08T02:49:57.190Z,4.80
2023-01-08T02:50:29.853Z,4.80
2023-01-08T02:51:02.536Z,4.90
2023-01-08T02:51:35.205Z,4.80
2023-01-08T02:52:07.882Z,5.00
2023-01-08T02:52:40.551Z,4.90
2023-01-08T02:53:13.259Z,5.00
2023-01-08T02:53:45.928Z,4.80
2023-01-08T02:54:18.600Z,5.10
2023-01-08T02:54:51.285Z,4.80
2023-01-08T02:55:23.966Z,4.90
2023-01-08T02:55:56.638Z,4.90
2023-01-08T02:56:29.315Z,5.00
2023-01-08T02:57:01.977Z,5.30
2023-01-08T02:57:34.655Z,4.90
2023-01-08T02:58:07.323Z,4.90
2023-01-08T02:58:39.992Z,5.00
2023-01-08T02:59:12.680Z,5.30
2023-01-08T02:59:45.351Z,5.00
2023-01-08T03:00:18.024Z,4.90
2023-01-08T03:00:50.691Z,5.10
2023-01-08T03:01:23.536Z,5.10
2023-01-08T03:01:56.562Z,4.90
2023-01-08T03:02:23.027Z,5.00
2023-01-08T03:02:55.737Z,5.20
2023-01-08T03:03:28.406Z,5.50
2023-01-08T03:04:01.147Z,5.80
2023-01-08T03:04:33.883Z,5.40
2023-01-08T03:05:06.559Z,5.00
2023-01-08T03:05:39.230Z,5.10
2023-01-08T03:06:11.893Z,5.10
2023-01-08T03:06:44.566Z,5.50
2023-01-08T03:07:17.219Z,5.30
2023-01-08T03:07:49.892Z,5.20
2023-01-08T03:08:22.554Z,5.20
2023-01-08T03:08:55.241Z,5.10
2023-01-08T03:09:27.911Z,4.90
2023-01-08T03:10:00.576Z,5.20
2023-01-08T03:10:33.250Z,5.20
2023-01-08T03:11:05.921Z,5.00
2023-01-08T03:11:38.596Z,4.90
2023-01-08T03:12:11.264Z,5.20
2023-01-08T03:12:43.953Z,5.10
2023-01-08T03:13:16.635Z,5.20
2023-01-08T03:13:49.329Z,5.30
2023-01-08T03:14:22.024Z,5.10
2023-01-08T03:14:54.681Z,4.90
2023-01-08T03:15:27.352Z,5.10
2023-01-08T03:16:00.044Z,5.00
2023-01-08T03:16:32.760Z,5.10
2023-01-08T03:17:05.493Z,5.40
2023-01-08T03:17:38.279Z,5.40
2023-01-08T03:18:10.933Z,5.50
2023-01-08T03:18:43.609Z,5.50
2023-01-08T03:19:16.271Z,5.20
2023-01-08T03:19:48.956Z,5.20
2023-01-08T03:20:21.701Z,5.50
2023-01-08T03:20:54.337Z,5.40
2023-01-08T03:21:27.020Z,5.60
2023-01-08T03:21:59.698Z,5.50
2023-01-08T03:22:32.364Z,5.00
2023-01-08T03:23:05.040Z,5.30
2023-01-08T03:23:37.720Z,5.40
2023-01-08T03:24:10.399Z,5.50
2023-01-08T03:24:43.075Z,5.30
2023-01-08T03:25:15.754Z,5.30
2023-01-08T03:25:48.406Z,5.30
2023-01-08T03:26:21.072Z,5.10
2023-01-08T03:26:53.760Z,5.20
2023-01-08T03:27:26.400Z,5.30
2023-01-08T03:27:59.080Z,5.40
2023-01-08T03:28:31.731Z,5.20
2023-01-08T03:29:04.420Z,5.40
2023-01-08T03:29:37.099Z,5.30
2023-01-08T03:30:09.768Z,5.40
2023-01-08T03:30:42.544Z,5.90
2023-01-08T03:31:15.291Z,5.50
2023-01-08T03:31:47.936Z,5.50
2023-01-08T03:32:20.651Z,5.50
2023-01-08T03:32:53.420Z,5.60
2023-01-08T03:33:26.042Z,5.00
2023-01-08T03:33:58.727Z,5.90
2023-01-08T03:34:31.391Z,5.20
2023-01-08T03:35:04.054Z,5.40
2023-01-08T03:35:36.740Z,5.20
2023-01-08T03:36:09.401Z,5.40
2023-01-08T03:36:42.080Z,5.50
2023-01-08T03:37:14.760Z,5.30
2023-01-08T03:37:47.420Z,5.60
2023-01-08T03:38:20.088Z,5.40
2023-01-08T03:38:52.780Z,5.10
2023-01-08T03:39:25.441Z,6.00
2023-01-08T03:39:58.105Z,5.20
2023-01-08T03:40:30.809Z,5.80
2023-01-08T03:41:03.464Z,5.60
2023-01-08T03:41:36.166Z,5.70
2023-01-08T03:42:08.839Z,5.40
2023-01-08T03:42:41.559Z,5.30
2023-01-08T03:43:14.296Z,5.60
2023-01-08T03:43:47.003Z,5.50
2023-01-08T03:44:19.662Z,5.70
2023-01-08T03:44:52.342Z,5.70
2023-01-08T03:45:25.019Z,5.80
2023-01-08T03:45:57.781Z,5.60
2023-01-08T03:46:30.499Z,5.90
2023-01-08T03:47:03.169Z,5.80
2023-01-08T03:47:35.840Z,5.70
2023-01-08T03:48:08.532Z,5.60
2023-01-08T03:48:41.174Z,5.70
2023-01-08T03:49:13.871Z,5.70
2023-01-08T03:49:46.529Z,6.00
2023-01-08T03:50:19.204Z,5.30
2023-01-08T03:50:51.886Z,5.50
2023-01-08T03:51:24.581Z,5.90
2023-01-08T03:51:57.240Z,5.40
2023-01-08T03:52:29.919Z,5.70
2023-01-08T03:53:02.586Z,5.70
2023-01-08T03:53:35.259Z,5.80
2023-01-08T03:54:07.949Z,5.70
2023-01-08T03:54:40.617Z,5.30
2023-01-08T03:55:13.334Z,5.60
2023-01-08T03:55:46.007Z,5.70
2023-01-08T03:56:18.687Z,5.50
2023-01-08T03:56:51.357Z,5.50
2023-01-08T03:57:24.032Z,6.30
2023-01-08T03:57:56.702Z,5.60
2023-01-08T03:58:29.365Z,6.10
2023-01-08T03:59:02.064Z,5.90
2023-01-08T03:59:34.720Z,5.60
2023-01-08T04:00:07.406Z,5.60
2023-01-08T04:00:40.049Z,5.50
2023-01-08T04:01:12.850Z,5.60
2023-01-08T04:01:45.747Z,5.60
2023-01-08T04:02:18.629Z,5.50
2023-01-08T04:02:51.402Z,5.90
2023-01-08T04:03:24.192Z,5.60
2023-01-08T04:03:56.843Z,5.70
2023-01-08T04:04:29.610Z,6.00
2023-01-08T04:05:02.248Z,6.00
2023-01-08T04:05:34.928Z,5.60
2023-01-08T04:06:06.019Z,6.00
2023-01-08T04:06:38.683Z,5.50
2023-01-08T04:07:11.359Z,5.90
2023-01-08T04:07:44.026Z,5.50
2023-01-08T04:08:16.711Z,6.00
2023-01-08T04:08:49.420Z,5.90
2023-01-08T04:09:22.102Z,5.90
2023-01-08T04:09:54.783Z,5.80
2023-01-08T04:10:27.482Z,5.70
2023-01-08T04:11:00.145Z,5.30
2023-01-08T04:11:32.820Z,5.50
2023-01-08T04:12:05.478Z,5.40
2023-01-08T04:12:38.181Z,5.90
2023-01-08T04:13:10.910Z,5.60
2023-01-08T04:13:43.645Z,6.60
2023-01-08T04:14:16.323Z,5.80
2023-01-08T04:14:48.987Z,5.80
2023-01-08T04:15:21.710Z,5.70
2023-01-08T04:15:54.477Z,5.80
2023-01-08T04:16:27.220Z,6.00
2023-01-08T04:16:59.908Z,5.90
2023-01-08T04:17:32.573Z,5.60
2023-01-08T04:18:05.248Z,5.70
2023-01-08T04:18:37.979Z,6.40
2023-01-08T04:19:10.652Z,5.60
2023-01-08T04:19:43.309Z,6.10
2023-01-08T04:20:15.985Z,6.10
2023-01-08T04:20:48.683Z,6.10
2023-01-08T04:21:21.396Z,5.50
2023-01-08T04:21:54.049Z,6.00
2023-01-08T04:22:26.715Z,6.10
2023-01-08T04:22:59.395Z,6.00
2023-01-08T04:23:32.051Z,5.60
2023-01-08T04:24:04.740Z,6.00
2023-01-08T04:24:37.428Z,5.80
2023-01-08T04:25:10.118Z,6.30
2023-01-08T04:25:42.770Z,5.80
2023-01-08T04:26:15.439Z,5.60
2023-01-08T04:26:48.099Z,6.20
2023-01-08T04:27:20.765Z,5.90
2023-01-08T04:27:53.453Z,6.10
2023-01-08T04:28:26.146Z,5.70
2023-01-08T04:28:58.838Z,6.00
2023-01-08T04:29:31.503Z,6.00
2023-01-08T04:30:04.171Z,6.20
2023-01-08T04:30:36.846Z,5.90
2023-01-08T04:31:09.572Z,6.20
2023-01-08T04:31:42.263Z,5.90
2023-01-08T04:32:14.936Z,6.00
2023-01-08T04:32:47.607Z,6.00
2023-01-08T04:33:20.293Z,6.30
2023-01-08T04:33:53.074Z,5.90
2023-01-08T04:34:25.708Z,6.40
2023-01-08T04:34:58.376Z,6.20
2023-01-08T04:35:31.059Z,6.50
2023-01-08T04:36:03.729Z,6.30
2023-01-08T04:36:36.390Z,6.00
2023-01-08T04:37:09.085Z,6.50
2023-01-08T04:37:41.730Z,6.00
2023-01-08T04:38:14.401Z,5.90
2023-01-08T04:38:47.081Z,6.40
2023-01-08T04:39:19.753Z,6.30
2023-01-08T04:39:52.406Z,6.10
2023-01-08T04:40:25.076Z,6.10
2023-01-08T04:40:57.735Z,6.00
2023-01-08T04:41:30.404Z,6.20
2023-01-08T04:42:03.090Z,6.20
2023-01-08T04:42:35.755Z,6.10
2023-01-08T04:43:08.433Z,6.20
2023-01-08T04:43:41.124Z,6.20
2023-01-08T04:44:13.797Z,6.20
2023-01-08T04:44:46.470Z,6.50
2023-01-08T04:45:19.178Z,6.20
2023-01-08T04:45:51.835Z,6.00
2023-01-08T04:46:24.592Z,6.00
2023-01-08T04:46:57.246Z,6.10
2023-01-08T04:47:29.924Z,5.90
2023-01-08T04:48:02.584Z,6.30
2023-01-08T04:48:35.273Z,6.50
2023-01-08T04:49:08.068Z,6.00
2023-01-08T04:49:40.705Z,6.10
2023-01-08T04:50:13.370Z,5.80
2023-01-08T04:50:46.045Z,5.90
2023-01-08T04:51:18.780Z,6.00
2023-01-08T04:51:51.454Z,6.00
2023-01-08T04:52:24.120Z,5.90
2023-01-08T04:52:56.795Z,6.50
2023-01-08T04:53:29.463Z,5.90
2023-01-08T04:54:02.147Z,5.90
2023-01-08T04:54:34.836Z,6.20
2023-01-08T04:55:07.492Z,6.30
2023-01-08T04:55:40.169Z,6.30
2023-01-08T04:56:12.824Z,6.10
2023-01-08T04:56:45.545Z,6.20
2023-01-08T04:57:18.185Z,6.20
2023-01-08T04:57:50.850Z,6.20
2023-01-08T04:58:23.517Z,6.10
2023-01-08T04:58:56.224Z,6.20
2023-01-08T04:59:28.883Z,6.30
2023-01-08T05:00:01.556Z,6.00
2023-01-08T05:00:34.211Z,6.20
2023-01-08T05:01:06.965Z,6.50
2023-01-08T05:01:39.742Z,6.40
2023-01-08T05:02:12.707Z,6.20
2023-01-08T05:02:39.196Z,5.80
2023-01-08T05:03:12.019Z,6.00
2023-01-08T05:03:44.727Z,6.00
2023-01-08T05:04:17.517Z,6.10
2023-01-08T05:04:50.146Z,6.10
2023-01-08T05:05:22.810Z,6.10
2023-01-08T05:05:55.494Z,5.90
2023-01-08T05:06:28.173Z,5.90
2023-01-08T05:07:00.846Z,6.10
2023-01-08T05:07:33.482Z,6.40
2023-01-08T05:08:06.154Z,6.00
2023-01-08T05:08:38.851Z,5.80
2023-01-08T05:09:11.531Z,6.50
2023-01-08T05:09:44.201Z,5.90
2023-01-08T05:10:16.896Z,6.30
2023-01-08T05:10:49.548Z,5.70
2023-01-08T05:11:22.216Z,6.20
2023-01-08T05:11:54.897Z,6.00
2023-01-08T05:12:27.556Z,6.10
2023-01-08T05:13:00.240Z,6.10
2023-01-08T05:13:32.892Z,6.20
2023-01-08T05:14:05.582Z,6.30
2023-01-08T05:14:38.246Z,6.10
2023-01-08T05:15:10.930Z,6.10
2023-01-08T05:15:43.641Z,6.50
2023-01-08T05:16:16.381Z,6.10
2023-01-08T05:16:47.412Z,5.80
2023-01-08T05:17:20.092Z,6.10
2023-01-08T05:17:52.750Z,5.90
2023-01-08T05:18:25.411Z,5.90
2023-01-08T05:18:58.091Z,6.50
2023-01-08T05:19:30.868Z,6.20
2023-01-08T05:20:03.875Z,6.20
2023-01-08T05:20:30.159Z,6.00
2023-01-08T05:21:02.834Z,6.30
2023-01-08T05:21:35.513Z,6.20
2023-01-08T05:22:08.185Z,6.30
2023-01-08T05:22:40.863Z,6.30
2023-01-08T05:23:13.535Z,6.20
2023-01-08T05:23:46.220Z,6.30
2023-01-08T05:24:18.889Z,6.50
2023-01-08T05:24:51.555Z,6.30
2023-01-08T05:25:24.227Z,6.40
2023-01-08T05:25:56.884Z,6.30
2023-01-08T05:26:29.571Z,6.20
2023-01-08T05:27:02.246Z,6.00
2023-01-08T05:27:34.919Z,6.20
2023-01-08T05:28:07.575Z,6.00
2023-01-08T05:28:40.247Z,6.30
2023-01-08T05:29:12.936Z,6.40
2023-01-08T05:29:45.614Z,6.40
2023-01-08T05:30:18.275Z,6.20
2023-01-08T05:30:51.073Z,6.10
2023-01-08T05:31:23.848Z,6.20
2023-01-08T05:31:56.518Z,6.90
2023-01-08T05:32:29.154Z,6.60
2023-01-08T05:33:01.873Z,6.20
2023-01-08T05:33:34.575Z,6.30
2023-01-08T05:34:07.255Z,6.00
2023-01-08T05:34:40.039Z,6.60
2023-01-08T05:35:12.688Z,6.40
2023-01-08T05:35:45.363Z,6.20
2023-01-08T05:36:18.047Z,6.40
2023-01-08T05:36:50.700Z,6.50
2023-01-08T05:37:23.380Z,6.70
2023-01-08T05:37:56.048Z,6.30
2023-01-08T05:38:28.720Z,6.70
2023-01-08T05:39:01.406Z,6.30
2023-01-08T05:39:34.096Z,6.30
2023-01-08T05:40:06.777Z,6.70
2023-01-08T05:40:37.856Z,6.20
2023-01-08T05:41:10.540Z,6.20
2023-01-08T05:41:43.203Z,6.50
2023-01-08T05:42:15.869Z,6.10
2023-01-08T05:42:48.536Z,6.20
2023-01-08T05:43:21.220Z,6.20
2023-01-08T05:43:52.308Z,6.20
2023-01-08T05:44:24.977Z,5.90
2023-01-08T05:44:57.660Z,6.40
2023-01-08T05:45:30.334Z,6.40
2023-01-08T05:46:03.058Z,6.60
2023-01-08T05:46:35.829Z,6.10
2023-01-08T05:47:08.575Z,6.20
2023-01-08T05:47:41.248Z,6.50
2023-01-08T05:48:13.911Z,6.30
2023-01-08T05:48:46.602Z,6.30
2023-01-08T05:49:19.272Z,6.10
2023-01-08T05:49:50.472Z,6.60
2023-01-08T05:50:23.107Z,6.40
2023-01-08T05:50:55.787Z,6.40
2023-01-08T05:51:28.442Z,6.40
2023-01-08T05:52:01.112Z,6.50
2023-01-08T05:52:33.782Z,6.40
2023-01-08T05:53:06.451Z,7.00
2023-01-08T05:53:39.128Z,6.30
2023-01-08T05:54:11.801Z,6.50
2023-01-08T05:54:44.476Z,6.50
2023-01-08T05:55:17.167Z,6.80
2023-01-08T05:55:49.838Z,6.80
2023-01-08T05:56:22.487Z,6.50
2023-01-08T05:56:55.165Z,6.60
2023-01-08T05:57:27.835Z,6.60
2023-01-08T05:58:00.512Z,6.20
2023-01-08T05:58:33.178Z,6.30
2023-01-08T05:59:05.890Z,6.50
2023-01-08T05:59:38.544Z,6.40
2023-01-08T06:00:11.246Z,6.20
2023-01-08T06:00:43.926Z,6.40
2023-01-08T06:01:16.685Z,6.00
2023-01-08T06:01:49.490Z,6.40
2023-01-08T06:02:22.198Z,6.10
2023-01-08T06:02:54.887Z,6.10
2023-01-08T06:03:27.534Z,6.20
2023-01-08T06:04:00.303Z,6.10
2023-01-08T06:04:33.034Z,6.00
2023-01-08T06:05:05.809Z,6.20
2023-01-08T06:05:38.450Z,6.40
2023-01-08T06:06:11.158Z,6.60
2023-01-08T06:06:43.791Z,6.40
2023-01-08T06:07:16.461Z,6.10
2023-01-08T06:07:49.122Z,6.30
2023-01-08T06:08:21.793Z,6.00
2023-01-08T06:08:54.494Z,6.00
2023-01-08T06:09:27.151Z,6.30
2023-01-08T06:09:59.814Z,6.40
2023-01-08T06:10:32.484Z,5.80
2023-01-08T06:11:05.157Z,5.60
2023-01-08T06:11:37.825Z,6.10
2023-01-08T06:12:10.511Z,6.10
2023-01-08T06:12:43.170Z,6.00
2023-01-08T06:13:15.834Z,5.90
2023-01-08T06:13:48.521Z,5.50
2023-01-08T06:14:21.193Z,5.70
2023-01-08T06:14:53.859Z,5.80
2023-01-08T06:15:26.619Z,5.60
2023-01-08T06:15:59.396Z,5.60
2023-01-08T06:16:32.107Z,5.70
2023-01-08T06:17:04.783Z,5.70
2023-01-08T06:17:37.467Z,5.70
2023-01-08T06:18:10.146Z,5.80
2023-01-08T06:18:42.841Z,5.60
2023-01-08T06:19:15.520Z,5.80
2023-01-08T06:19:48.203Z,5.50
2023-01-08T06:20:20.989Z,5.80
2023-01-08T06:20:53.611Z,5.90
2023-01-08T06:21:26.289Z,5.60
2023-01-08T06:21:58.953Z,5.50
2023-01-08T06:22:33.484Z,5.80
2023-01-08T06:22:59.770Z,5.30
2023-01-08T06:23:32.450Z,5.20
2023-01-08T06:24:05.121Z,5.90
2023-01-08T06:24:37.791Z,5.30
2023-01-08T06:25:10.464Z,5.30
2023-01-08T06:25:43.148Z,5.50
2023-01-08T06:26:15.793Z,5.40
2023-01-08T06:26:48.462Z,5.30
2023-01-08T06:27:21.129Z,5.30
2023-01-08T06:27:53.798Z,5.60
2023-01-08T06:28:26.467Z,5.70
2023-01-08T06:28:59.167Z,5.30
2023-01-08T06:29:31.852Z,5.30
2023-01-08T06:30:04.501Z,5.40
2023-01-08T06:30:37.158Z,5.30
2023-01-08T06:31:09.914Z,5.30
2023-01-08T06:31:42.705Z,5.50
2023-01-08T06:32:15.386Z,5.40
2023-01-08T06:32:48.064Z,5.60
2023-01-08T06:33:21.492Z,5.30
2023-01-08T06:33:51.807Z,5.80
2023-01-08T06:34:24.507Z,5.10
2023-01-08T06:34:57.186Z,5.80
2023-01-08T06:35:30.004Z,5.10
2023-01-08T06:36:02.635Z,5.20
2023-01-08T06:36:35.307Z,5.40
2023-01-08T06:37:07.995Z,5.50
2023-01-08T06:37:40.648Z,5.60
2023-01-08T06:38:13.315Z,5.30
2023-01-08T06:38:45.987Z,5.20
2023-01-08T06:39:18.641Z,5.60
2023-01-08T06:39:51.324Z,5.50
2023-01-08T06:40:23.999Z,5.50
2023-01-08T06:40:56.675Z,5.20
2023-01-08T06:41:29.339Z,5.30
2023-01-08T06:42:02.009Z,5.40
2023-01-08T06:42:34.684Z,5.00
2023-01-08T06:43:07.352Z,5.40
2023-01-08T06:43:40.045Z,5.10
2023-01-08T06:44:12.703Z,5.10
2023-01-08T06:44:45.376Z,5.20
2023-01-08T06:45:18.057Z,5.20
2023-01-08T06:45:50.726Z,5.50
2023-01-08T06:46:23.487Z,5.10
2023-01-08T06:46:56.297Z,5.30
2023-01-08T06:47:28.935Z,5.40
2023-01-08T06:48:01.611Z,5.30
2023-01-08T06:48:34.295Z,5.60
2023-01-08T06:49:06.938Z,5.20
2023-01-08T06:49:39.624Z,5.00
2023-01-08T06:50:12.305Z,5.50
2023-01-08T06:50:45.083Z,5.40
2023-01-08T06:51:17.710Z,5.00
2023-01-08T06:51:50.388Z,5.00
2023-01-08T06:52:23.068Z,5.30
2023-01-08T06:52:55.724Z,4.90
2023-01-08T06:53:28.398Z,5.30
2023-01-08T06:54:01.066Z,5.40
2023-01-08T06:54:33.739Z,5.20
2023-01-08T06:55:06.460Z,5.30
2023-01-08T06:55:39.145Z,5.10
2023-01-08T06:56:11.797Z,5.30
2023-01-08T06:56:53.329Z,5.10
2023-01-08T06:57:16.545Z,5.10
2023-01-08T06:57:42.718Z,4.90
2023-01-08T06:58:15.386Z,5.10
2023-01-08T06:58:48.199Z,4.90
2023-01-08T06:59:20.894Z,5.00
2023-01-08T06:59:53.557Z,5.10
2023-01-08T07:00:26.269Z,5.10
2023-01-08T07:00:58.987Z,5.00
2023-01-08T07:01:31.818Z,5.00
2023-01-08T07:02:04.679Z,5.00
2023-01-08T07:02:37.631Z,5.20
2023-01-08T07:03:08.643Z,5.00
2023-01-08T07:03:41.436Z,5.40
2023-01-08T07:04:14.104Z,5.00
2023-01-08T07:04:46.772Z,4.90
2023-01-08T07:05:19.432Z,5.00
2023-01-08T07:05:52.217Z,5.00
2023-01-08T07:06:24.844Z,4.70
2023-01-08T07:06:57.527Z,5.00
2023-01-08T07:07:30.202Z,4.70
2023-01-08T07:08:02.868Z,5.00
2023-01-08T07:08:35.538Z,5.10
2023-01-08T07:09:08.213Z,5.00
2023-01-08T07:09:40.898Z,5.10
2023-01-08T07:10:13.578Z,5.20
2023-01-08T07:10:46.270Z,5.00
2023-01-08T07:11:18.929Z,5.00
2023-01-08T07:11:51.601Z,5.30
2023-01-08T07:12:24.282Z,4.90
2023-01-08T07:12:56.931Z,5.30
2023-01-08T07:13:29.602Z,5.10
2023-01-08T07:14:02.283Z,5.60